createdAt,value
2022-10-29T00:01:39.379Z,40.29
2022-10-29T00:04:06.738Z,41.03
2022-10-29T00:06:33.807Z,40.53
2022-10-29T00:09:00.925Z,40.80
2022-10-29T00:11:29.385Z,41.08
2022-10-29T00:13:59.385Z,41.75
2022-10-29T00:16:28.604Z,41.43
2022-10-29T00:18:57.086Z,41.57
2022-10-29T00:21:26.047Z,41.94
2022-10-29T00:23:53.686Z,42.30
2022-10-29T00:26:22.201Z,42.06
2022-10-29T00:28:52.869Z,42.62
2022-10-29T00:31:20.124Z,43.06
2022-10-29T00:33:47.324Z,43.19
2022-10-29T00:36:17.397Z,43.06
2022-10-29T00:38:45.707Z,43.07
2022-10-29T00:41:14.626Z,42.58
2022-10-29T00:43:47.228Z,42.63
2022-10-29T00:46:23.469Z,42.02
2022-10-29T00:48:55.225Z,42.35
2022-10-29T00:51:25.904Z,42.53
2022-10-29T00:53:58.666Z,42.81
2022-10-29T00:56:29.546Z,41.70
2022-10-29T00:58:57.386Z,41.67
2022-10-29T01:01:26.176Z,41.89
2022-10-29T01:03:54.864Z,41.06
2022-10-29T01:06:24.447Z,41.21
2022-10-29T01:08:51.464Z,41.61
2022-10-29T01:11:30.426Z,41.66
2022-10-29T01:14:16.265Z,41.38
2022-10-29T01:16:52.587Z,41.28
2022-10-29T01:19:42.313Z,41.95
2022-10-29T01:22:16.565Z,42.17
2022-10-29T01:25:03.604Z,42.54
2022-10-29T01:27:51.484Z,42.64
2022-10-29T01:30:43.964Z,42.44
2022-10-29T01:33:22.545Z,42.80
2022-10-29T01:35:58.766Z,42.38
2022-10-29T01:38:37.816Z,42.77
2022-10-29T01:41:15.025Z,42.16
2022-10-29T01:43:49.645Z,42.33
2022-10-29T01:46:21.806Z,42.25
2022-10-29T01:48:56.944Z,41.77
2022-10-29T01:51:29.384Z,42.13
2022-10-29T01:54:00.377Z,41.93
2022-10-29T01:56:27.666Z,41.54
2022-10-29T01:59:00.191Z,41.74
2022-10-29T02:01:44.152Z,42.23
2022-10-29T02:04:39.624Z,51.00
2022-10-29T02:07:20.345Z,49.07
2022-10-29T02:10:05.525Z,49.70
2022-10-29T02:12:40.684Z,52.69
2022-10-29T02:15:13.404Z,49.69
2022-10-29T02:17:40.925Z,49.30
2022-10-29T02:20:13.564Z,50.31
2022-10-29T02:22:40.745Z,45.47
2022-10-29T02:25:09.251Z,47.02
2022-10-29T02:27:36.504Z,47.89
2022-10-29T02:30:04.209Z,45.62
2022-10-29T02:32:31.225Z,45.16
2022-10-29T02:34:58.265Z,45.18
2022-10-29T02:37:26.845Z,46.31
2022-10-29T02:39:53.904Z,45.00
2022-10-29T02:42:20.925Z,45.55
2022-10-29T02:44:48.000Z,45.50
2022-10-29T02:47:15.167Z,45.46
2022-10-29T02:49:42.285Z,44.42
2022-10-29T02:52:09.570Z,44.29
2022-10-29T02:54:38.446Z,44.05
2022-10-29T02:57:05.506Z,43.98
2022-10-29T02:59:32.585Z,43.79
2022-10-29T03:01:59.861Z,43.63
2022-10-29T03:04:27.325Z,44.10
2022-10-29T03:06:54.425Z,44.73
2022-10-29T03:09:21.706Z,43.74
2022-10-29T03:11:50.686Z,44.13
2022-10-29T03:14:17.685Z,44.19
2022-10-29T03:16:44.771Z,44.23
2022-10-29T03:19:11.785Z,44.16
2022-10-29T03:21:38.804Z,44.91
2022-10-29T03:24:06.484Z,44.29
2022-10-29T03:26:33.545Z,44.73
2022-10-29T03:29:02.158Z,44.42
2022-10-29T03:31:29.168Z,44.60
2022-10-29T03:33:56.205Z,43.82
2022-10-29T03:36:24.297Z,44.36
2022-10-29T03:38:51.424Z,44.30
2022-10-29T03:41:18.430Z,44.88
2022-10-29T03:43:45.546Z,44.60
2022-10-29T03:46:14.126Z,44.08
2022-10-29T03:51:07.934Z,44.41
2022-10-29T03:53:36.587Z,44.47
2022-10-29T03:56:05.035Z,44.44
2022-10-29T03:58:32.125Z,44.22
2022-10-29T04:01:01.085Z,44.45
2022-10-29T04:03:31.544Z,45.00
2022-10-29T04:06:00.746Z,44.54
2022-10-29T04:08:29.205Z,44.95
2022-10-29T04:10:56.288Z,44.67
2022-10-29T04:13:23.369Z,45.22
2022-10-29T04:15:54.245Z,44.87
2022-10-29T04:18:21.705Z,44.82
2022-10-29T04:29:11.828Z,44.59
2022-10-29T04:31:38.866Z,44.66
2022-10-29T04:34:05.905Z,45.15
2022-10-29T04:36:34.366Z,45.16
2022-10-29T04:39:01.547Z,44.73
2022-10-29T04:41:28.664Z,44.67
2022-10-29T04:43:55.725Z,44.29
2022-10-29T04:46:22.685Z,45.33
2022-10-29T04:48:49.783Z,44.27
2022-10-29T04:51:19.847Z,45.10
2022-10-29T04:53:48.507Z,45.60
2022-10-29T04:56:16.325Z,44.86
2022-10-29T04:58:43.825Z,44.42
2022-10-29T05:01:11.161Z,44.72
2022-10-29T05:03:38.346Z,44.92
2022-10-29T05:06:07.066Z,44.91
2022-10-29T05:08:34.786Z,44.89
2022-10-29T05:11:04.085Z,44.83
2022-10-29T05:13:32.005Z,45.19
2022-10-29T05:15:59.625Z,45.22
2022-10-29T05:18:26.886Z,45.15
2022-10-29T05:20:54.387Z,45.46
2022-10-29T05:23:22.401Z,45.36
2022-10-29T05:25:49.905Z,45.56
2022-10-29T05:28:20.887Z,45.35
2022-10-29T05:30:49.868Z,45.14
2022-10-29T05:33:18.825Z,45.23
2022-10-29T05:35:46.741Z,45.44
2022-10-29T05:38:15.590Z,44.66
2022-10-29T05:40:43.806Z,45.59
2022-10-29T05:43:11.066Z,45.03
2022-10-29T05:45:40.346Z,44.75
2022-10-29T05:48:08.705Z,44.55
2022-10-29T05:50:36.366Z,45.05
2022-10-29T05:53:05.628Z,44.97
2022-10-29T05:55:34.145Z,45.36
2022-10-29T05:58:03.546Z,44.79
2022-10-29T06:00:33.412Z,44.70
2022-10-29T06:03:02.086Z,45.53
2022-10-29T06:05:29.323Z,45.46
2022-10-29T06:07:58.137Z,45.70
2022-10-29T06:10:27.550Z,45.07
2022-10-29T06:12:55.070Z,45.12
2022-10-29T06:15:22.524Z,45.37
2022-10-29T06:17:49.688Z,45.11
2022-10-29T06:20:20.364Z,44.95
2022-10-29T06:22:47.728Z,44.73
2022-10-29T06:25:14.845Z,44.84
2022-10-29T06:27:41.864Z,44.50
2022-10-29T06:30:10.087Z,45.01
2022-10-29T06:32:37.124Z,44.02
2022-10-29T06:35:04.465Z,43.80
2022-10-29T06:37:32.927Z,44.16
2022-10-29T06:39:59.965Z,43.44
2022-10-29T06:42:26.986Z,43.82
2022-10-29T06:44:54.045Z,43.88
2022-10-29T06:47:21.052Z,43.70
2022-10-29T06:49:48.207Z,44.05
2022-10-29T06:52:15.249Z,44.01
2022-10-29T06:54:43.686Z,43.49
2022-10-29T06:57:10.785Z,43.92
2022-10-29T06:59:37.887Z,43.27
2022-10-29T07:02:05.006Z,43.32
2022-10-29T07:04:32.189Z,42.61
2022-10-29T07:06:59.167Z,42.62
2022-10-29T07:09:26.187Z,43.20
2022-10-29T07:11:54.685Z,43.33
2022-10-29T07:14:21.647Z,42.48
2022-10-29T07:16:48.686Z,42.57
2022-10-29T07:19:15.728Z,42.92
2022-10-29T07:21:42.926Z,41.96
2022-10-29T07:24:10.285Z,41.93
2022-10-29T07:26:37.506Z,41.79
2022-10-29T07:29:05.946Z,42.49
2022-10-29T07:31:33.065Z,41.91
2022-10-29T07:34:00.129Z,42.02
2022-10-29T07:36:27.346Z,41.96
2022-10-29T07:38:54.427Z,41.41
2022-10-29T07:41:21.507Z,41.06
2022-10-29T07:43:48.569Z,41.29
2022-10-29T07:46:17.026Z,41.24
2022-10-29T07:48:44.108Z,41.52
2022-10-29T07:51:11.170Z,41.49
2022-10-29T07:53:38.205Z,41.03
2022-10-29T07:56:06.287Z,40.72
2022-10-29T07:58:33.370Z,41.47
2022-10-29T08:01:00.717Z,41.05
2022-10-29T08:03:29.334Z,40.61
2022-10-29T08:05:57.447Z,40.97
2022-10-29T08:08:24.788Z,41.02
2022-10-29T08:10:51.886Z,41.02
2022-10-29T08:13:18.985Z,40.86
2022-10-29T08:15:47.027Z,39.46
2022-10-29T08:18:16.450Z,40.46
2022-10-29T08:20:45.765Z,40.64
2022-10-29T08:23:13.626Z,40.49
2022-10-29T08:25:41.409Z,40.28
2022-10-29T08:28:10.847Z,41.25
2022-10-29T08:30:38.147Z,39.44
2022-10-29T08:33:05.796Z,39.36
2022-10-29T08:35:34.481Z,39.41
2022-10-29T08:38:02.988Z,39.41
2022-10-29T08:40:37.306Z,39.42
2022-10-29T08:43:30.466Z,39.07
2022-10-29T08:45:57.888Z,39.07
2022-10-29T08:48:43.206Z,38.88
2022-10-29T08:51:23.886Z,39.20
2022-10-29T08:54:24.918Z,39.35
2022-10-29T08:56:49.508Z,39.05
2022-10-29T08:59:19.228Z,38.91
2022-10-29T09:01:46.666Z,38.72
2022-10-29T09:04:24.587Z,39.05
2022-10-29T09:07:25.707Z,38.95
2022-10-29T09:10:00.034Z,38.49
2022-10-29T09:12:48.010Z,38.12
2022-10-29T09:15:36.929Z,38.36
2022-10-29T09:18:27.968Z,37.65
2022-10-29T09:21:06.848Z,37.91
2022-10-29T09:23:56.488Z,38.49
2022-10-29T09:26:31.828Z,38.40
2022-10-29T09:29:17.589Z,37.82
2022-10-29T09:31:51.176Z,37.46
2022-10-29T09:34:28.707Z,38.35
2022-10-29T09:36:57.129Z,37.67
2022-10-29T09:39:34.306Z,37.98
2022-10-29T09:42:12.630Z,37.79
2022-10-29T09:44:49.650Z,37.24
2022-10-29T09:47:29.368Z,37.77
2022-10-29T09:50:11.246Z,36.96
2022-10-29T09:52:42.089Z,38.47
2022-10-29T09:55:20.447Z,38.23
2022-10-29T09:57:49.410Z,38.41
2022-10-29T10:00:21.294Z,38.98
2022-10-29T10:02:55.857Z,39.08
2022-10-29T10:05:27.676Z,38.81
2022-10-29T10:08:10.720Z,38.81
2022-10-29T10:10:51.328Z,39.12
2022-10-29T10:13:26.178Z,38.83
2022-10-29T10:15:57.269Z,38.42
2022-10-29T10:18:26.548Z,39.34
2022-10-29T10:21:04.616Z,39.05
2022-10-29T10:23:43.252Z,38.72
2022-10-29T10:26:38.527Z,39.85
2022-10-29T10:29:12.138Z,38.59
2022-10-29T10:31:39.899Z,38.55
2022-10-29T10:34:17.029Z,38.34
2022-10-29T10:36:50.228Z,39.31
2022-10-29T10:39:26.468Z,38.56
2022-10-29T10:41:56.089Z,38.96
2022-10-29T10:44:24.989Z,37.63
2022-10-29T10:46:55.541Z,39.64
2022-10-29T10:49:32.068Z,39.52
2022-10-29T10:52:03.252Z,38.90
2022-10-29T10:54:36.072Z,38.88
2022-10-29T10:57:05.367Z,39.45
2022-10-29T10:59:48.350Z,39.90
2022-10-29T11:02:25.726Z,39.53
2022-10-29T11:05:03.582Z,40.42
2022-10-29T11:07:41.132Z,40.57
2022-10-29T11:10:14.413Z,40.31
2022-10-29T11:12:48.252Z,40.56
2022-10-29T11:15:27.291Z,41.80
2022-10-29T11:18:00.493Z,41.49
2022-10-29T11:20:32.468Z,42.40
2022-10-29T11:23:16.787Z,42.11
2022-10-29T11:25:51.028Z,42.35
2022-10-29T11:28:29.568Z,41.60
2022-10-29T11:31:17.547Z,42.24
2022-10-29T11:33:54.388Z,41.24
2022-10-29T11:36:24.134Z,42.02
2022-10-29T11:38:57.949Z,42.07
2022-10-29T11:41:34.570Z,41.97
2022-10-29T11:44:01.727Z,41.86
2022-10-29T11:46:46.893Z,41.19
2022-10-29T11:49:39.127Z,42.05
2022-10-29T11:52:11.340Z,41.40
2022-10-29T11:54:52.668Z,40.33
2022-10-29T11:57:28.891Z,40.89
2022-10-29T12:00:09.610Z,41.29
2022-10-29T12:02:58.350Z,41.62
2022-10-29T12:05:36.968Z,41.52
2022-10-29T12:08:24.887Z,39.79
2022-10-29T12:11:05.208Z,42.06
2022-10-29T12:13:48.169Z,40.88
2022-10-29T12:16:31.048Z,42.75
2022-10-29T12:19:13.808Z,41.38
2022-10-29T12:21:50.849Z,41.21
2022-10-29T12:24:42.409Z,41.12
2022-10-29T12:27:19.790Z,41.28
2022-10-29T12:29:57.573Z,40.85
2022-10-29T12:32:32.188Z,40.50
2022-10-29T12:35:14.228Z,40.31
2022-10-29T12:37:49.908Z,40.47
2022-10-29T12:40:24.828Z,40.06
2022-10-29T12:42:54.316Z,40.04
2022-10-29T12:45:36.958Z,39.78
2022-10-29T12:48:17.349Z,39.76
2022-10-29T12:50:58.332Z,39.30
2022-10-29T12:53:36.390Z,39.77
2022-10-29T12:56:04.807Z,39.07
2022-10-29T12:58:46.608Z,38.96
2022-10-29T13:02:10.442Z,38.38
2022-10-29T13:04:34.787Z,38.72
2022-10-29T13:07:05.936Z,38.35
2022-10-29T13:09:35.629Z,38.75
2022-10-29T13:12:05.268Z,38.44
2022-10-29T13:14:40.688Z,38.71
2022-10-29T13:17:26.748Z,38.56
2022-10-29T13:19:57.756Z,38.99
2022-10-29T13:22:48.510Z,39.29
2022-10-29T13:25:49.333Z,38.94
2022-10-29T13:28:51.429Z,39.54
2022-10-29T13:31:55.088Z,39.83
2022-10-29T13:34:53.873Z,39.88
2022-10-29T13:37:49.677Z,39.61
2022-10-29T13:41:01.308Z,39.43
2022-10-29T13:43:30.648Z,39.40
2022-10-29T13:46:16.508Z,39.53
2022-10-29T13:48:47.351Z,39.12
2022-10-29T13:51:22.577Z,39.17
2022-10-29T13:53:57.068Z,38.68
2022-10-29T13:56:34.128Z,39.08
2022-10-29T13:59:07.207Z,38.73
2022-10-29T14:01:34.577Z,39.10
2022-10-29T14:04:16.220Z,39.31
2022-10-29T14:06:46.548Z,39.43
2022-10-29T14:09:28.068Z,39.67
2022-10-29T14:12:01.928Z,39.59
2022-10-29T14:14:37.411Z,39.63
2022-10-29T14:17:12.308Z,40.18
2022-10-29T14:19:44.370Z,39.98
2022-10-29T14:22:28.988Z,40.25
2022-10-29T14:24:57.967Z,40.16
2022-10-29T14:27:25.170Z,40.53
2022-10-29T14:29:54.715Z,40.41
2022-10-29T14:32:22.850Z,40.93
2022-10-29T14:34:51.428Z,41.08
2022-10-29T14:37:28.628Z,41.33
2022-10-29T14:40:02.287Z,41.34
2022-10-29T14:42:33.579Z,41.19
2022-10-29T14:45:04.953Z,41.13
2022-10-29T14:47:36.108Z,41.13
2022-10-29T14:50:14.535Z,40.50
2022-10-29T14:52:51.033Z,40.38
2022-10-29T14:55:25.129Z,40.18
2022-10-29T14:58:03.576Z,40.25
2022-10-29T15:00:34.969Z,39.92
2022-10-29T15:03:03.253Z,39.85
2022-10-29T15:05:33.588Z,39.84
2022-10-29T15:08:05.209Z,39.73
2022-10-29T15:10:46.272Z,39.67
2022-10-29T15:13:29.509Z,39.40
2022-10-29T15:16:02.227Z,39.56
2022-10-29T15:18:32.808Z,39.89
2022-10-29T15:21:00.909Z,39.52
2022-10-29T15:23:32.646Z,39.82
2022-10-29T15:26:04.288Z,40.28
2022-10-29T15:28:37.627Z,39.94
2022-10-29T15:31:05.706Z,39.80
2022-10-29T15:33:35.606Z,39.71
2022-10-29T15:36:05.639Z,39.77
2022-10-29T15:39:02.287Z,40.79
2022-10-29T15:41:39.267Z,40.90
2022-10-29T15:44:29.751Z,41.30
2022-10-29T15:46:58.865Z,41.67
2022-10-29T15:49:28.366Z,41.92
2022-10-29T15:52:00.368Z,42.00
2022-10-29T15:54:28.429Z,42.49
2022-10-29T15:56:57.067Z,42.28
2022-10-29T15:59:26.606Z,42.48
2022-10-29T16:01:54.042Z,42.34
2022-10-29T16:04:21.206Z,42.98
2022-10-29T16:06:48.450Z,42.65
2022-10-29T16:09:20.005Z,42.68
2022-10-29T16:11:47.048Z,42.71
2022-10-29T16:14:15.525Z,41.62
2022-10-29T16:16:42.587Z,42.21
2022-10-29T16:19:09.731Z,42.58
2022-10-29T16:21:37.219Z,43.55
2022-10-29T16:24:04.886Z,43.40
2022-10-29T16:26:32.026Z,43.74
2022-10-29T16:28:59.171Z,43.26
2022-10-29T16:31:29.467Z,43.27
2022-10-29T16:33:59.767Z,43.48
2022-10-29T16:36:27.387Z,43.81
2022-10-29T16:38:54.484Z,43.42
2022-10-29T16:41:21.766Z,43.47
2022-10-29T16:43:49.047Z,43.50
2022-10-29T16:46:16.125Z,43.65
2022-10-29T16:48:44.651Z,43.55
2022-10-29T16:51:11.687Z,43.72
2022-10-29T16:53:38.988Z,43.92
2022-10-29T16:56:06.486Z,43.64
2022-10-29T16:58:33.628Z,43.93
2022-10-29T17:01:04.864Z,44.49
2022-10-29T17:03:32.454Z,44.58
2022-10-29T17:06:05.925Z,44.93
2022-10-29T17:08:34.306Z,44.71
2022-10-29T17:11:03.065Z,44.56
2022-10-29T17:13:30.266Z,44.83
2022-10-29T17:15:57.886Z,44.31
2022-10-29T17:18:24.986Z,44.51
2022-10-29T17:20:56.766Z,44.66
2022-10-29T17:23:25.646Z,44.92
2022-10-29T17:25:54.021Z,44.50
2022-10-29T17:28:21.806Z,44.87
2022-10-29T17:30:49.108Z,44.37
2022-10-29T17:33:16.568Z,44.75
2022-10-29T17:35:44.330Z,44.29
2022-10-29T17:38:11.688Z,44.52
2022-10-29T17:40:40.148Z,44.60
2022-10-29T17:43:07.166Z,44.49
2022-10-29T17:45:34.278Z,44.29
2022-10-29T17:48:01.570Z,44.23
2022-10-29T17:50:28.794Z,43.80
2022-10-29T17:52:55.854Z,44.34
2022-10-29T17:55:22.936Z,43.81
2022-10-29T17:57:51.474Z,43.10
2022-10-29T18:00:18.978Z,43.67
2022-10-29T18:02:49.226Z,44.01
2022-10-29T18:05:16.474Z,43.68
2022-10-29T18:07:43.655Z,43.30
2022-10-29T18:10:10.930Z,43.48
2022-10-29T18:12:37.977Z,43.47
2022-10-29T18:15:07.635Z,43.58
2022-10-29T18:17:34.894Z,43.62
2022-10-29T18:20:02.056Z,43.45
2022-10-29T18:22:29.154Z,43.28
2022-10-29T18:24:56.194Z,43.91
2022-10-29T18:27:23.355Z,43.37
2022-10-29T18:29:50.454Z,42.01
2022-10-29T18:32:19.654Z,42.46
2022-10-29T18:34:46.776Z,42.32
2022-10-29T18:37:13.794Z,42.87
2022-10-29T18:39:40.975Z,42.66
2022-10-29T18:42:13.797Z,42.01
2022-10-29T18:44:51.339Z,42.46
2022-10-29T18:47:24.840Z,42.73
2022-10-29T18:50:02.846Z,42.70
2022-10-29T18:52:33.498Z,41.94
2022-10-29T18:55:02.299Z,41.78
2022-10-29T18:57:29.434Z,42.12
2022-10-29T18:59:56.459Z,42.85
2022-10-29T19:02:25.045Z,42.95
2022-10-29T19:04:52.336Z,43.68
2022-10-29T19:07:19.415Z,42.90
2022-10-29T19:09:47.823Z,41.29
2022-10-29T19:12:15.115Z,40.47
2022-10-29T19:14:42.321Z,40.69
2022-10-29T19:17:09.476Z,41.86
2022-10-29T19:19:42.381Z,42.44
2022-10-29T19:22:09.484Z,41.79
2022-10-29T19:24:36.557Z,40.68
2022-10-29T19:27:03.778Z,41.98
2022-10-29T19:29:30.937Z,42.16
2022-10-29T19:31:58.037Z,42.34
2022-10-29T19:34:25.214Z,42.41
2022-10-29T19:36:53.977Z,42.33
2022-10-29T19:39:21.068Z,41.52
2022-10-29T19:41:48.217Z,41.37
2022-10-29T19:44:15.442Z,42.44
2022-10-29T19:46:42.798Z,42.80
2022-10-29T19:49:09.896Z,42.38
2022-10-29T19:51:37.056Z,43.56
2022-10-29T19:54:05.936Z,43.51
2022-10-29T19:56:32.997Z,43.79
2022-10-29T19:59:00.102Z,43.97
2022-10-29T20:01:27.370Z,43.76
2022-10-29T20:03:54.607Z,43.36
2022-10-29T20:06:21.618Z,43.69
2022-10-29T20:08:48.742Z,43.59
2022-10-29T20:11:17.460Z,43.77
2022-10-29T20:13:44.495Z,44.10
2022-10-29T20:16:15.676Z,44.27
2022-10-29T20:18:43.020Z,43.37
2022-10-29T20:21:10.957Z,44.25
2022-10-29T20:23:38.519Z,44.46
2022-10-29T20:26:06.737Z,44.37
2022-10-29T20:28:35.595Z,44.22
2022-10-29T20:31:14.516Z,44.44
2022-10-29T20:33:41.876Z,44.68
2022-10-29T20:36:09.743Z,43.81
2022-10-29T20:38:37.172Z,44.19
2022-10-29T20:41:04.208Z,44.74
2022-10-29T20:43:31.678Z,44.92
2022-10-29T20:46:04.244Z,45.08
2022-10-29T20:48:31.397Z,44.86
2022-10-29T20:50:58.916Z,45.04
2022-10-29T20:53:25.977Z,45.14
2022-10-29T20:55:53.176Z,45.21
2022-10-29T20:58:21.815Z,44.92
2022-10-29T21:00:49.064Z,44.72
2022-10-29T21:03:18.736Z,44.69
2022-10-29T21:05:45.780Z,44.61
2022-10-29T21:08:13.007Z,45.09
2022-10-29T21:10:40.178Z,44.95
2022-10-29T21:13:07.336Z,44.91
2022-10-29T21:15:35.802Z,44.52
2022-10-29T21:18:02.996Z,49.88
2022-10-29T21:20:32.897Z,50.61
2022-10-29T21:23:00.280Z,49.64
2022-10-29T21:25:27.658Z,49.09
2022-10-29T21:27:55.131Z,46.29
2022-10-29T21:30:22.468Z,48.23
2022-10-29T21:32:50.057Z,46.24
2022-10-29T21:35:17.275Z,48.11
2022-10-29T21:37:45.778Z,48.52
2022-10-29T21:40:13.797Z,47.15
2022-10-29T21:42:40.903Z,46.98
2022-10-29T21:45:08.817Z,46.75
2022-10-29T21:47:35.918Z,45.76
2022-10-29T21:50:02.995Z,45.50
2022-10-29T21:52:30.075Z,44.08
2022-10-29T21:54:58.575Z,47.29
2022-10-29T21:57:25.699Z,45.77
2022-10-29T21:59:52.718Z,47.73
2022-10-29T22:02:19.842Z,47.58
2022-10-29T22:04:46.917Z,47.57
2022-10-29T22:07:14.016Z,46.11
2022-10-29T22:09:41.093Z,47.39
2022-10-29T22:12:09.568Z,45.63
2022-10-29T22:14:36.629Z,45.80
2022-10-29T22:17:03.690Z,46.21
2022-10-29T22:19:30.847Z,44.95
2022-10-29T22:21:58.008Z,47.22
2022-10-29T22:24:25.149Z,45.09
2022-10-29T22:26:52.186Z,44.53
2022-10-29T22:29:20.609Z,47.28
2022-10-29T22:31:47.806Z,46.23
2022-10-29T22:34:14.917Z,46.09
2022-10-29T22:36:42.087Z,43.19
2022-10-29T22:39:09.309Z,43.49
2022-10-29T22:41:36.454Z,43.66
2022-10-29T22:44:03.734Z,43.76
2022-10-29T22:46:32.194Z,44.13
2022-10-29T22:48:59.314Z,44.27
2022-10-29T22:51:28.734Z,44.12
2022-10-29T22:53:55.957Z,44.07
2022-10-29T22:56:25.296Z,44.37
2022-10-29T22:58:53.216Z,44.31
2022-10-29T23:01:22.774Z,44.26
2022-10-29T23:03:52.383Z,44.19
2022-10-29T23:06:21.277Z,44.41
2022-10-29T23:08:51.238Z,43.96
2022-10-29T23:11:20.654Z,44.35
2022-10-29T23:13:48.454Z,43.90
2022-10-29T23:16:16.481Z,43.98
2022-10-29T23:18:44.083Z,43.96
2022-10-29T23:21:12.557Z,44.03
2022-10-29T23:23:39.614Z,44.22
2022-10-29T23:26:06.701Z,44.29
2022-10-29T23:28:37.036Z,44.25
2022-10-29T23:31:06.755Z,44.25
2022-10-29T23:33:34.257Z,43.81
2022-10-29T23:36:02.754Z,43.86
2022-10-29T23:38:31.875Z,43.85
2022-10-29T23:40:58.954Z,44.01
2022-10-29T23:43:26.236Z,44.26
2022-10-29T23:45:53.894Z,44.21
2022-10-29T23:48:20.934Z,44.06
2022-10-29T23:50:48.515Z,43.90
2022-10-29T23:53:15.759Z,43.75
2022-10-29T23:55:46.179Z,44.20
2022-10-29T23:58:14.174Z,43.77
